createdAt,value
2016-07-01T00:00:48.559Z,0
2016-07-01T00:01:47.327Z,0
2016-07-01T00:02:47.924Z,0
2016-07-01T00:03:47.986Z,0
2016-07-01T00:04:48.003Z,0
2016-07-01T00:05:47.944Z,0
2016-07-01T00:06:47.942Z,0
2016-07-01T00:07:48.620Z,0
2016-07-01T00:08:48.585Z,0
2016-07-01T00:09:47.957Z,0
2016-07-01T00:10:48.044Z,0
2016-07-01T00:11:48.590Z,0
2016-07-01T00:12:47.990Z,0
2016-07-01T00:13:48.638Z,0
2016-07-01T00:14:47.990Z,0
2016-07-01T00:15:48.009Z,0
2016-07-01T00:16:47.377Z,0
2016-07-01T00:17:48.633Z,0
2016-07-01T00:18:48.886Z,0
2016-07-01T00:19:48.676Z,0
2016-07-01T00:20:48.007Z,0
2016-07-01T00:21:48.030Z,0
2016-07-01T00:22:47.398Z,0
2016-07-01T00:23:48.654Z,0
2016-07-01T00:24:46.818Z,0
2016-07-01T00:25:48.678Z,0
2016-07-01T00:26:48.658Z,0
2016-07-01T00:27:47.453Z,0
2016-07-01T00:28:47.437Z,0
2016-07-01T00:29:48.054Z,0
2016-07-01T00:30:48.721Z,0
2016-07-01T00:31:47.469Z,0
2016-07-01T00:32:47.454Z,0
2016-07-01T00:33:48.694Z,0
2016-07-01T00:34:48.695Z,0
2016-07-01T00:35:47.471Z,0
2016-07-01T00:36:47.499Z,0
2016-07-01T00:37:48.098Z,0
2016-07-01T00:38:47.503Z,0
2016-07-01T00:39:48.734Z,0
2016-07-01T00:40:47.504Z,0
2016-07-01T00:41:47.505Z,0
2016-07-01T00:42:48.740Z,0
2016-07-01T00:43:46.886Z,0
2016-07-01T00:44:48.766Z,0
2016-07-01T00:45:48.146Z,0
2016-07-01T00:46:47.522Z,0
2016-07-01T00:47:47.542Z,0
2016-07-01T00:48:48.807Z,0
2016-07-01T00:49:47.539Z,0
2016-07-01T00:50:48.206Z,0
2016-07-01T00:51:48.778Z,0
2016-07-01T00:52:48.190Z,0
2016-07-01T00:53:48.190Z,0
2016-07-01T00:54:48.194Z,0
2016-07-01T00:55:48.829Z,0
2016-07-01T00:56:48.814Z,0
2016-07-01T00:57:48.826Z,0
2016-07-01T00:58:48.842Z,0
2016-07-01T00:59:47.590Z,0
2016-07-01T01:00:47.647Z,0
2016-07-01T01:01:48.859Z,0
2016-07-01T01:02:48.845Z,0
2016-07-01T01:03:48.239Z,0
2016-07-01T01:04:48.910Z,0
2016-07-01T01:05:47.641Z,0
2016-07-01T01:06:48.238Z,0
2016-07-01T01:07:48.944Z,0
2016-07-01T01:08:48.949Z,0
2016-07-01T01:09:48.261Z,0
2016-07-01T01:10:48.263Z,0
2016-07-01T01:11:48.267Z,0
2016-07-01T01:12:48.881Z,0
2016-07-01T01:13:48.337Z,0
2016-07-01T01:14:48.328Z,0
2016-07-01T01:15:48.334Z,0
2016-07-01T01:16:48.927Z,0
2016-07-01T01:17:47.693Z,0
2016-07-01T01:18:48.920Z,0
2016-07-01T01:19:48.318Z,0
2016-07-01T01:20:48.329Z,0
2016-07-01T01:21:48.962Z,0
2016-07-01T01:22:48.335Z,0
2016-07-01T01:23:48.979Z,0
2016-07-01T01:24:48.332Z,0
2016-07-01T01:25:48.341Z,0
2016-07-01T01:26:48.965Z,0
2016-07-01T01:27:48.350Z,0
2016-07-01T01:28:48.353Z,0
2016-07-01T01:29:48.363Z,0
2016-07-01T01:30:48.997Z,0
2016-07-01T01:31:48.997Z,0
2016-07-01T01:32:47.795Z,0
2016-07-01T01:33:48.405Z,0
2016-07-01T01:34:48.387Z,0
2016-07-01T01:35:48.405Z,0
2016-07-01T01:36:49.012Z,0
2016-07-01T01:37:49.026Z,0
2016-07-01T01:38:49.027Z,0
2016-07-01T01:39:47.811Z,0
2016-07-01T01:40:48.449Z,0
2016-07-01T01:41:49.089Z,0
2016-07-01T01:42:49.052Z,0
2016-07-01T01:43:48.442Z,0
2016-07-01T01:44:48.452Z,0
2016-07-01T01:45:49.073Z,0
2016-07-01T01:46:47.829Z,0
2016-07-01T01:47:49.076Z,0
2016-07-01T01:48:47.841Z,0
2016-07-01T01:49:47.859Z,0
2016-07-01T01:50:48.465Z,0
2016-07-01T01:51:48.471Z,0
2016-07-01T01:52:48.477Z,0
2016-07-01T01:53:47.857Z,0
2016-07-01T01:54:49.174Z,0
2016-07-01T01:55:49.118Z,0
2016-07-01T01:56:48.525Z,0
2016-07-01T01:57:48.514Z,0
2016-07-01T01:58:47.898Z,0
2016-07-01T01:59:47.901Z,0
2016-07-01T02:00:49.162Z,0
2016-07-01T02:01:49.158Z,0
2016-07-01T02:02:49.231Z,0
2016-07-01T02:03:47.922Z,0
2016-07-01T02:04:47.931Z,0
2016-07-01T02:05:47.326Z,0
2016-07-01T02:06:48.552Z,0
2016-07-01T02:07:49.186Z,0
2016-07-01T02:08:49.194Z,0
2016-07-01T02:09:49.179Z,0
2016-07-01T02:10:49.208Z,0
2016-07-01T02:11:47.969Z,0
2016-07-01T02:12:48.608Z,0
2016-07-01T02:13:49.225Z,0
2016-07-01T02:14:49.220Z,0
2016-07-01T02:15:48.611Z,0
2016-07-01T02:16:48.628Z,0
2016-07-01T02:17:48.008Z,0
2016-07-01T02:18:48.033Z,0
2016-07-01T02:19:48.119Z,0
2016-07-01T02:20:49.256Z,0
2016-07-01T02:21:48.668Z,0
2016-07-01T02:22:48.645Z,0
2016-07-01T02:23:47.409Z,0
2016-07-01T02:24:48.642Z,0
2016-07-01T02:25:48.645Z,0
2016-07-01T02:26:48.669Z,0
2016-07-01T02:27:48.658Z,0
2016-07-01T02:28:48.671Z,0
2016-07-01T02:29:48.675Z,0
2016-07-01T02:30:49.310Z,0
2016-07-01T02:31:49.299Z,0
2016-07-01T02:32:49.325Z,0
2016-07-01T02:33:48.082Z,0
2016-07-01T02:34:48.690Z,0
2016-07-01T02:35:48.712Z,0
2016-07-01T02:36:49.339Z,0
2016-07-01T02:37:48.709Z,0
2016-07-01T02:38:49.345Z,0
2016-07-01T02:39:48.105Z,0
2016-07-01T02:40:48.100Z,0
2016-07-01T02:41:47.515Z,0
2016-07-01T02:42:48.756Z,0
2016-07-01T02:43:48.164Z,0
2016-07-01T02:44:48.753Z,0
2016-07-01T02:45:49.395Z,0
2016-07-01T02:46:49.382Z,0
2016-07-01T02:47:47.525Z,0
2016-07-01T02:48:49.394Z,0
2016-07-01T02:49:48.768Z,0
2016-07-01T02:50:48.778Z,0
2016-07-01T02:51:48.155Z,0
2016-07-01T02:52:49.414Z,0
2016-07-01T02:53:48.812Z,0
2016-07-01T02:54:48.828Z,0
2016-07-01T02:55:48.791Z,0
2016-07-01T02:56:48.198Z,0
2016-07-01T02:57:48.817Z,0
2016-07-01T02:58:48.812Z,0
2016-07-01T02:59:48.226Z,0
2016-07-01T03:00:49.451Z,4
2016-07-01T03:01:49.444Z,4
2016-07-01T03:02:49.461Z,4
2016-07-01T03:03:48.838Z,4
2016-07-01T03:04:48.844Z,4
2016-07-01T03:05:48.843Z,0
2016-07-01T03:06:49.471Z,0
2016-07-01T03:07:49.532Z,4
2016-07-01T03:08:49.477Z,4
2016-07-01T03:09:48.902Z,4
2016-07-01T03:10:48.927Z,4
2016-07-01T03:11:48.899Z,4
2016-07-01T03:12:49.534Z,4
2016-07-01T03:13:48.905Z,4
2016-07-01T03:14:48.284Z,4
2016-07-01T03:15:49.526Z,4
2016-07-01T03:16:48.913Z,8
2016-07-01T03:17:48.914Z,8
2016-07-01T03:18:48.318Z,8
2016-07-01T03:19:48.919Z,8
2016-07-01T03:20:48.955Z,4
2016-07-01T03:21:49.024Z,8
2016-07-01T03:22:47.715Z,8
2016-07-01T03:23:48.326Z,12
2016-07-01T03:24:48.967Z,12
2016-07-01T03:25:49.024Z,12
2016-07-01T03:26:49.592Z,16
2016-07-01T03:27:49.594Z,12
2016-07-01T03:28:48.372Z,16
2016-07-01T03:29:47.742Z,12
2016-07-01T03:30:48.394Z,12
2016-07-01T03:31:48.356Z,12
2016-07-01T03:32:48.981Z,12
2016-07-01T03:33:48.992Z,12
2016-07-01T03:34:48.412Z,12
2016-07-01T03:35:48.386Z,16
2016-07-01T03:36:49.640Z,20
2016-07-01T03:37:49.637Z,20
2016-07-01T03:38:49.066Z,28
2016-07-01T03:39:49.658Z,28
2016-07-01T03:40:48.402Z,32
2016-07-01T03:41:49.038Z,32
2016-07-01T03:42:48.424Z,32
2016-07-01T03:43:49.694Z,36
2016-07-01T03:44:48.458Z,36
2016-07-01T03:45:49.071Z,44
2016-07-01T03:46:49.067Z,44
2016-07-01T03:47:49.086Z,48
2016-07-01T03:48:49.696Z,52
2016-07-01T03:49:49.082Z,52
2016-07-01T03:50:49.701Z,52
2016-07-01T03:51:49.707Z,56
2016-07-01T03:52:49.089Z,56
2016-07-01T03:53:49.084Z,56
2016-07-01T03:54:49.731Z,56
2016-07-01T03:55:49.117Z,56
2016-07-01T03:56:47.870Z,56
2016-07-01T03:57:49.135Z,56
2016-07-01T03:58:48.502Z,60
2016-07-01T03:59:49.119Z,64
2016-07-01T04:00:49.138Z,72
2016-07-01T04:01:49.769Z,84
2016-07-01T04:02:49.171Z,92
2016-07-01T04:03:49.786Z,96
2016-07-01T04:04:49.788Z,96
2016-07-01T04:05:49.178Z,100
2016-07-01T04:06:49.794Z,108
2016-07-01T04:07:49.226Z,116
2016-07-01T04:08:48.550Z,124
2016-07-01T04:09:49.181Z,132
2016-07-01T04:10:49.816Z,128
2016-07-01T04:11:47.950Z,128
2016-07-01T04:12:48.582Z,116
2016-07-01T04:13:48.582Z,128
2016-07-01T04:14:48.592Z,124
2016-07-01T04:15:49.879Z,124
2016-07-01T04:16:48.603Z,116
2016-07-01T04:17:49.222Z,100
2016-07-01T04:18:49.233Z,88
2016-07-01T04:19:49.221Z,88
2016-07-01T04:20:49.866Z,80
2016-07-01T04:21:49.856Z,72
2016-07-01T04:22:49.282Z,64
2016-07-01T04:23:49.862Z,64
2016-07-01T04:24:49.259Z,64
2016-07-01T04:25:49.886Z,64
2016-07-01T04:26:49.310Z,68
2016-07-01T04:27:48.683Z,76
2016-07-01T04:28:48.663Z,84
2016-07-01T04:29:48.043Z,84
2016-07-01T04:30:49.290Z,84
2016-07-01T04:31:48.028Z,92
2016-07-01T04:32:48.663Z,104
2016-07-01T04:33:48.689Z,124
2016-07-01T04:34:49.282Z,192
2016-07-01T04:35:50.159Z,224
2016-07-01T04:36:49.933Z,208
2016-07-01T04:37:49.303Z,168
2016-07-01T04:38:49.947Z,136
2016-07-01T04:39:48.709Z,112
2016-07-01T04:40:49.966Z,92
2016-07-01T04:41:48.714Z,80
2016-07-01T04:42:49.952Z,84
2016-07-01T04:43:49.341Z,92
2016-07-01T04:44:48.734Z,104
2016-07-01T04:45:50.199Z,116
2016-07-01T04:46:49.985Z,112
2016-07-01T04:47:49.368Z,112
2016-07-01T04:48:49.362Z,108
2016-07-01T04:49:49.363Z,108
2016-07-01T04:50:49.999Z,108
2016-07-01T04:51:49.398Z,108
2016-07-01T04:52:48.782Z,116
2016-07-01T04:53:50.059Z,120
2016-07-01T04:54:49.394Z,120
2016-07-01T04:55:50.025Z,116
2016-07-01T04:56:50.024Z,116
2016-07-01T04:57:50.054Z,120
2016-07-01T04:58:49.046Z,124
2016-07-01T04:59:49.447Z,124
2016-07-01T05:00:48.811Z,132
2016-07-01T05:01:50.086Z,136
2016-07-01T05:02:50.054Z,140
2016-07-01T05:03:48.827Z,140
2016-07-01T05:04:50.074Z,144
2016-07-01T05:05:49.450Z,148
2016-07-01T05:06:50.072Z,144
2016-07-01T05:07:49.473Z,144
2016-07-01T05:08:50.104Z,148
2016-07-01T05:09:48.867Z,156
2016-07-01T05:10:50.103Z,160
2016-07-01T05:11:49.474Z,164
2016-07-01T05:12:50.114Z,160
2016-07-01T05:13:48.261Z,160
2016-07-01T05:14:50.115Z,164
2016-07-01T05:15:48.878Z,172
2016-07-01T05:16:49.501Z,180
2016-07-01T05:17:50.139Z,192
2016-07-01T05:18:48.271Z,204
2016-07-01T05:19:49.521Z,220
2016-07-01T05:20:48.895Z,236
2016-07-01T05:21:50.162Z,256
2016-07-01T05:22:49.537Z,264
2016-07-01T05:23:49.575Z,268
2016-07-01T05:24:50.162Z,264
2016-07-01T05:25:48.927Z,232
2016-07-01T05:26:50.170Z,224
2016-07-01T05:27:48.943Z,268
2016-07-01T05:28:49.560Z,284
2016-07-01T05:29:48.945Z,284
2016-07-01T05:30:48.945Z,284
2016-07-01T05:31:49.601Z,288
2016-07-01T05:32:48.974Z,292
2016-07-01T05:33:50.225Z,276
2016-07-01T05:34:49.607Z,292
2016-07-01T05:35:48.992Z,308
2016-07-01T05:36:48.997Z,328
2016-07-01T05:37:49.011Z,348
2016-07-01T05:38:49.622Z,396
2016-07-01T05:39:49.636Z,412
2016-07-01T05:40:50.257Z,380
2016-07-01T05:41:49.652Z,396
2016-07-01T05:42:49.651Z,440
2016-07-01T05:43:50.283Z,392
2016-07-01T05:44:49.670Z,300
2016-07-01T05:45:49.660Z,268
2016-07-01T05:46:49.668Z,196
2016-07-01T05:47:49.668Z,144
2016-07-01T05:48:48.466Z,124
2016-07-01T05:49:49.682Z,176
2016-07-01T05:50:49.711Z,244
2016-07-01T05:51:49.097Z,288
2016-07-01T05:52:49.088Z,328
2016-07-01T05:53:49.096Z,344
2016-07-01T05:54:49.086Z,384
2016-07-01T05:55:49.090Z,392
2016-07-01T05:56:48.478Z,356
2016-07-01T05:57:49.123Z,376
2016-07-01T05:58:49.110Z,372
2016-07-01T05:59:49.123Z,376
2016-07-01T06:00:49.111Z,384
2016-07-01T06:01:50.350Z,384
2016-07-01T06:02:50.379Z,392
2016-07-01T06:03:49.757Z,392
2016-07-01T06:04:49.768Z,412
2016-07-01T06:05:49.766Z,428
2016-07-01T06:06:50.376Z,388
2016-07-01T06:07:50.398Z,324
2016-07-01T06:08:49.766Z,292
2016-07-01T06:09:49.811Z,300
2016-07-01T06:10:48.578Z,264
2016-07-01T06:11:49.791Z,300
2016-07-01T06:12:49.792Z,296
2016-07-01T06:13:49.211Z,312
2016-07-01T06:14:49.807Z,304
2016-07-01T06:15:50.457Z,312
2016-07-01T06:16:49.208Z,356
2016-07-01T06:17:50.465Z,400
2016-07-01T06:18:49.832Z,412
2016-07-01T06:19:49.835Z,360
2016-07-01T06:20:50.474Z,340
2016-07-01T06:21:50.459Z,336
2016-07-01T06:22:50.501Z,340
2016-07-01T06:23:49.252Z,340
2016-07-01T06:24:49.922Z,328
2016-07-01T06:25:50.496Z,312
2016-07-01T06:26:49.891Z,320
2016-07-01T06:27:49.934Z,348
2016-07-01T06:28:50.511Z,372
2016-07-01T06:29:49.298Z,400
2016-07-01T06:30:49.919Z,432
2016-07-01T06:31:49.926Z,476
2016-07-01T06:32:50.548Z,496
2016-07-01T06:33:49.290Z,512
2016-07-01T06:34:49.916Z,536
2016-07-01T06:35:49.311Z,532
2016-07-01T06:36:49.952Z,536
2016-07-01T06:37:49.944Z,544
2016-07-01T06:38:50.569Z,540
2016-07-01T06:39:49.991Z,552
2016-07-01T06:40:50.575Z,568
2016-07-01T06:41:49.360Z,560
2016-07-01T06:42:49.969Z,572
2016-07-01T06:43:49.979Z,628
2016-07-01T06:44:49.968Z,648
2016-07-01T06:45:49.976Z,664
2016-07-01T06:46:50.606Z,688
2016-07-01T06:47:50.663Z,752
2016-07-01T06:48:50.027Z,856
2016-07-01T06:49:49.994Z,936
2016-07-01T06:50:49.385Z,1012
2016-07-01T06:51:50.003Z,976
2016-07-01T06:52:50.013Z,960
2016-07-01T06:53:50.035Z,1048
2016-07-01T06:54:50.031Z,1144
2016-07-01T06:55:49.438Z,1216
2016-07-01T06:56:50.055Z,1160
2016-07-01T06:57:50.059Z,1252
2016-07-01T06:58:50.672Z,1480
2016-07-01T06:59:50.074Z,1716
2016-07-01T07:00:50.679Z,2564
2016-07-01T07:01:50.683Z,6164
2016-07-01T07:02:50.089Z,13128
2016-07-01T07:03:50.065Z,14096
2016-07-01T07:04:49.455Z,4256
2016-07-01T07:05:49.474Z,2864
2016-07-01T07:06:50.098Z,1988
2016-07-01T07:07:49.479Z,1616
2016-07-01T07:08:50.097Z,1436
2016-07-01T07:09:50.120Z,1360
2016-07-01T07:10:50.176Z,1316
2016-07-01T07:11:48.886Z,1312
2016-07-01T07:12:50.750Z,1276
2016-07-01T07:13:50.759Z,1212
2016-07-01T07:14:48.943Z,1180
2016-07-01T07:15:49.552Z,1120
2016-07-01T07:16:50.218Z,1044
2016-07-01T07:17:49.552Z,1008
2016-07-01T07:18:50.163Z,988
2016-07-01T07:19:50.796Z,992
2016-07-01T07:20:50.179Z,1048
2016-07-01T07:21:50.217Z,1100
2016-07-01T07:22:50.179Z,1104
2016-07-01T07:23:50.210Z,1180
2016-07-01T07:24:50.251Z,1232
2016-07-01T07:25:50.852Z,1216
2016-07-01T07:26:50.878Z,1240
2016-07-01T07:27:50.210Z,1292
2016-07-01T07:28:49.606Z,1320
2016-07-01T07:29:50.241Z,1432
2016-07-01T07:30:50.271Z,1424
2016-07-01T07:31:50.226Z,1276
2016-07-01T07:32:50.856Z,1216
2016-07-01T07:33:50.270Z,1204
2016-07-01T07:34:50.247Z,1148
2016-07-01T07:35:49.637Z,1124
2016-07-01T07:36:50.264Z,1092
2016-07-01T07:37:50.277Z,912
2016-07-01T07:38:50.906Z,776
2016-07-01T07:39:50.297Z,660
2016-07-01T07:40:49.689Z,672
2016-07-01T07:41:50.310Z,884
2016-07-01T07:42:50.323Z,952
2016-07-01T07:43:50.331Z,908
2016-07-01T07:44:50.307Z,916
2016-07-01T07:45:50.338Z,824
2016-07-01T07:46:50.332Z,912
2016-07-01T07:47:49.715Z,988
2016-07-01T07:48:50.977Z,1036
2016-07-01T07:49:50.357Z,1048
2016-07-01T07:50:50.970Z,1136
2016-07-01T07:51:49.744Z,1128
2016-07-01T07:52:49.122Z,1160
2016-07-01T07:53:50.970Z,1012
2016-07-01T07:54:50.398Z,1048
2016-07-01T07:55:51.002Z,1080
2016-07-01T07:56:50.375Z,1044
2016-07-01T07:57:50.440Z,1036
2016-07-01T07:58:49.776Z,1064
2016-07-01T07:59:50.410Z,1028
2016-07-01T08:00:51.013Z,1044
2016-07-01T08:01:50.408Z,1032
2016-07-01T08:02:51.033Z,1104
2016-07-01T08:03:51.033Z,1040
2016-07-01T08:04:49.821Z,1064
2016-07-01T08:05:50.435Z,1068
2016-07-01T08:06:49.813Z,1148
2016-07-01T08:07:50.456Z,1252
2016-07-01T08:08:50.449Z,1372
2016-07-01T08:09:51.155Z,1416
2016-07-01T08:10:50.721Z,1408
2016-07-01T08:11:50.470Z,1392
2016-07-01T08:12:50.486Z,1436
2016-07-01T08:13:49.867Z,1388
2016-07-01T08:14:50.485Z,1436
2016-07-01T08:15:49.865Z,1532
2016-07-01T08:16:51.116Z,1536
2016-07-01T08:17:50.522Z,1508
2016-07-01T08:18:50.512Z,1524
2016-07-01T08:19:51.139Z,1580
2016-07-01T08:20:50.521Z,1596
2016-07-01T08:21:49.904Z,1644
2016-07-01T08:22:51.162Z,1732
2016-07-01T08:23:50.539Z,1644
2016-07-01T08:24:49.965Z,1576
2016-07-01T08:25:50.554Z,1476
2016-07-01T08:26:50.558Z,1500
2016-07-01T08:27:50.572Z,1536
2016-07-01T08:28:49.325Z,1516
2016-07-01T08:29:50.606Z,1480
2016-07-01T08:30:50.634Z,1472
2016-07-01T08:31:50.687Z,1440
2016-07-01T08:32:49.981Z,1360
2016-07-01T08:33:50.585Z,1308
2016-07-01T08:34:49.982Z,1348
2016-07-01T08:35:50.613Z,1520
2016-07-01T08:36:51.239Z,1620
2016-07-01T08:37:50.693Z,1700
2016-07-01T08:38:49.425Z,1764
2016-07-01T08:39:51.250Z,1788
2016-07-01T08:40:50.622Z,1816
2016-07-01T08:41:50.058Z,1916
2016-07-01T08:42:50.645Z,1996
2016-07-01T08:43:51.290Z,1828
2016-07-01T08:44:51.289Z,1736
2016-07-01T08:45:51.278Z,1544
2016-07-01T08:46:50.683Z,1420
2016-07-01T08:47:50.063Z,1440
2016-07-01T08:48:50.699Z,1492
2016-07-01T08:49:50.709Z,1604
2016-07-01T08:50:50.075Z,1724
2016-07-01T08:51:50.082Z,1624
2016-07-01T08:52:50.116Z,1416
2016-07-01T08:53:50.733Z,1452
2016-07-01T08:54:50.112Z,1500
2016-07-01T08:55:50.723Z,1516
2016-07-01T08:56:50.724Z,1584
2016-07-01T08:57:51.386Z,1524
2016-07-01T08:58:50.154Z,1652
2016-07-01T08:59:51.361Z,1636
2016-07-01T09:00:50.751Z,1516
2016-07-01T09:01:50.760Z,1448
2016-07-01T09:02:50.826Z,1500
2016-07-01T09:03:50.781Z,1524
2016-07-01T09:04:49.544Z,1828
2016-07-01T09:05:50.793Z,1880
2016-07-01T09:06:51.527Z,2224
2016-07-01T09:07:50.205Z,1904
2016-07-01T09:08:50.837Z,1964
2016-07-01T09:09:50.360Z,1832
2016-07-01T09:10:51.494Z,1724
2016-07-01T09:11:51.441Z,1540
2016-07-01T09:12:50.840Z,1380
2016-07-01T09:13:50.216Z,1440
2016-07-01T09:14:50.244Z,1504
2016-07-01T09:15:51.492Z,1508
2016-07-01T09:16:50.864Z,1508
2016-07-01T09:17:51.486Z,1512
2016-07-01T09:18:51.490Z,1568
2016-07-01T09:19:50.870Z,1436
2016-07-01T09:20:50.262Z,1424
2016-07-01T09:21:50.909Z,1376
2016-07-01T09:22:50.899Z,1352
2016-07-01T09:23:50.286Z,1240
2016-07-01T09:24:50.287Z,1184
2016-07-01T09:25:51.544Z,1324
2016-07-01T09:26:50.948Z,1496
2016-07-01T09:27:50.932Z,1632
2016-07-01T09:28:51.559Z,1660
2016-07-01T09:29:50.965Z,1768
2016-07-01T09:30:50.339Z,1800
2016-07-01T09:31:50.943Z,1768
2016-07-01T09:32:51.352Z,1588
2016-07-01T09:33:50.350Z,1392
2016-07-01T09:34:50.978Z,1324
2016-07-01T09:35:50.969Z,1232
2016-07-01T09:36:51.583Z,1160
2016-07-01T09:37:51.010Z,1160
2016-07-01T09:38:50.980Z,1196
2016-07-01T09:39:51.009Z,1376
2016-07-01T09:40:51.014Z,1448
2016-07-01T09:41:51.638Z,1544
2016-07-01T09:42:51.254Z,1512
2016-07-01T09:43:51.016Z,1624
2016-07-01T09:44:51.022Z,1684
2016-07-01T09:45:50.440Z,1640
2016-07-01T09:46:50.419Z,1580
2016-07-01T09:47:51.678Z,1564
2016-07-01T09:48:50.437Z,1504
2016-07-01T09:49:51.101Z,1484
2016-07-01T09:50:50.447Z,1480
2016-07-01T09:51:51.678Z,1548
2016-07-01T09:52:49.827Z,1632
2016-07-01T09:53:51.074Z,1760
2016-07-01T09:54:50.452Z,1732
2016-07-01T09:55:51.094Z,1760
2016-07-01T09:56:49.853Z,1784
2016-07-01T09:57:51.114Z,1832
2016-07-01T09:58:51.110Z,1780
2016-07-01T09:59:51.138Z,1836
2016-07-01T10:00:51.734Z,1708
2016-07-01T10:01:51.781Z,1492
2016-07-01T10:02:51.759Z,1508
2016-07-01T10:03:50.518Z,1456
2016-07-01T10:04:51.154Z,1408
2016-07-01T10:05:51.766Z,1460
2016-07-01T10:06:51.153Z,1496
2016-07-01T10:07:50.536Z,1480
2016-07-01T10:08:51.176Z,1396
2016-07-01T10:09:51.843Z,1536
2016-07-01T10:10:51.168Z,1584
2016-07-01T10:11:50.547Z,1732
2016-07-01T10:12:50.570Z,1720
2016-07-01T10:13:51.819Z,1596
2016-07-01T10:14:51.206Z,1488
2016-07-01T10:15:51.256Z,1340
2016-07-01T10:16:51.842Z,1224
2016-07-01T10:17:51.229Z,1392
2016-07-01T10:18:51.855Z,1652
2016-07-01T10:19:50.626Z,1904
2016-07-01T10:20:51.250Z,2280
2016-07-01T10:21:51.250Z,2468
2016-07-01T10:22:51.875Z,2628
2016-07-01T10:23:51.263Z,2424
2016-07-01T10:24:50.655Z,2292
2016-07-01T10:25:50.025Z,2112
2016-07-01T10:26:50.065Z,1992
2016-07-01T10:27:51.284Z,1740
2016-07-01T10:28:50.666Z,1684
2016-07-01T10:29:51.650Z,1684
2016-07-01T10:30:51.964Z,1688
2016-07-01T10:31:50.700Z,1788
2016-07-01T10:32:50.690Z,1760
2016-07-01T10:33:51.938Z,1612
2016-07-01T10:34:50.759Z,1432
2016-07-01T10:35:51.337Z,1344
2016-07-01T10:36:51.953Z,1504
2016-07-01T10:37:52.031Z,1252
2016-07-01T10:38:51.367Z,1028
2016-07-01T10:39:51.365Z,868
2016-07-01T10:40:50.743Z,700
2016-07-01T10:41:52.041Z,624
2016-07-01T10:42:51.369Z,560
2016-07-01T10:43:52.004Z,536
2016-07-01T10:44:51.393Z,472
2016-07-01T10:45:51.408Z,448
2016-07-01T10:46:51.411Z,484
2016-07-01T10:47:51.403Z,392
2016-07-01T10:48:50.794Z,328
2016-07-01T10:49:51.418Z,324
2016-07-01T10:50:51.432Z,408
2016-07-01T10:51:52.088Z,488
2016-07-01T10:52:51.442Z,516
2016-07-01T10:53:51.460Z,612
2016-07-01T10:54:50.842Z,652
2016-07-01T10:55:50.224Z,720
2016-07-01T10:56:50.843Z,796
2016-07-01T10:57:50.845Z,780
2016-07-01T10:58:51.491Z,692
2016-07-01T10:59:50.856Z,616
2016-07-01T11:00:51.483Z,528
2016-07-01T11:01:51.516Z,452
2016-07-01T11:02:52.115Z,408
2016-07-01T11:03:51.509Z,380
2016-07-01T11:04:50.919Z,392
2016-07-01T11:05:50.894Z,388
2016-07-01T11:06:51.521Z,356
2016-07-01T11:07:50.908Z,324
2016-07-01T11:08:50.923Z,288
2016-07-01T11:09:51.586Z,300
2016-07-01T11:10:52.167Z,360
2016-07-01T11:11:51.555Z,384
2016-07-01T11:12:50.943Z,412
2016-07-01T11:13:51.596Z,460
2016-07-01T11:14:51.573Z,468
2016-07-01T11:15:51.578Z,468
2016-07-01T11:16:50.363Z,468
2016-07-01T11:17:51.587Z,444
2016-07-01T11:18:51.598Z,412
2016-07-01T11:19:52.238Z,384
2016-07-01T11:20:52.236Z,360
2016-07-01T11:21:51.624Z,348
2016-07-01T11:22:51.618Z,340
2016-07-01T11:23:51.010Z,324
2016-07-01T11:24:52.240Z,344
2016-07-01T11:25:51.026Z,368
2016-07-01T11:26:51.652Z,400
2016-07-01T11:27:51.638Z,400
2016-07-01T11:28:51.691Z,412
2016-07-01T11:29:52.323Z,424
2016-07-01T11:30:52.325Z,464
2016-07-01T11:31:51.055Z,548
2016-07-01T11:32:51.069Z,724
2016-07-01T11:33:51.678Z,932
2016-07-01T11:36:29.158Z,1084
2016-07-01T11:37:14.924Z,1292
2016-07-01T11:38:14.937Z,1396
2016-07-01T11:39:15.565Z,1572
2016-07-01T11:40:15.573Z,1376
2016-07-01T11:41:14.970Z,1412
2016-07-01T11:42:14.975Z,1272
2016-07-01T11:43:14.963Z,900
2016-07-01T11:44:15.583Z,768
2016-07-01T11:45:14.375Z,672
2016-07-01T11:46:15.610Z,612
2016-07-01T11:47:14.363Z,816
2016-07-01T11:48:14.995Z,736
2016-07-01T11:49:15.033Z,676
2016-07-01T11:50:14.390Z,628
2016-07-01T11:51:15.628Z,604
2016-07-01T11:52:15.654Z,608
2016-07-01T11:53:15.642Z,820
2016-07-01T11:54:15.630Z,776
2016-07-01T11:55:15.050Z,612
2016-07-01T11:56:15.068Z,460
2016-07-01T11:57:15.660Z,376
2016-07-01T11:58:15.051Z,364
2016-07-01T11:59:15.075Z,380
2016-07-01T12:00:15.671Z,324
2016-07-01T12:01:15.283Z,248
2016-07-01T12:02:15.695Z,212
2016-07-01T12:03:14.470Z,248
2016-07-01T12:04:15.088Z,280
2016-07-01T12:05:15.107Z,276
2016-07-01T12:06:14.470Z,252
2016-07-01T12:07:15.114Z,236
2016-07-01T12:08:14.507Z,232
2016-07-01T12:09:15.118Z,224
2016-07-01T12:10:15.202Z,224
2016-07-01T12:11:15.728Z,216
2016-07-01T12:12:15.755Z,212
2016-07-01T12:13:15.757Z,228
2016-07-01T12:14:15.150Z,236
2016-07-01T12:15:15.774Z,232
2016-07-01T12:16:15.774Z,232
2016-07-01T12:17:14.558Z,232
2016-07-01T12:18:15.155Z,224
2016-07-01T12:19:14.557Z,224
2016-07-01T12:20:15.170Z,268
2016-07-01T12:21:15.190Z,300
2016-07-01T12:22:15.813Z,312
2016-07-01T12:23:15.810Z,312
2016-07-01T12:24:15.201Z,308
2016-07-01T12:25:15.210Z,292
2016-07-01T12:26:15.204Z,272
2016-07-01T12:27:14.606Z,240
2016-07-01T12:28:15.202Z,232
2016-07-01T12:29:16.221Z,228
2016-07-01T12:30:15.242Z,212
2016-07-01T12:31:15.315Z,196
2016-07-01T12:32:15.874Z,180
2016-07-01T12:33:14.009Z,164
2016-07-01T12:34:14.619Z,148
2016-07-01T12:35:15.247Z,128
2016-07-01T12:36:14.667Z,124
2016-07-01T12:37:15.296Z,148
2016-07-01T12:38:15.882Z,172
2016-07-01T12:39:15.256Z,192
2016-07-01T12:40:15.297Z,232
2016-07-01T12:41:15.926Z,300
2016-07-01T12:42:14.726Z,360
2016-07-01T12:43:15.865Z,500
2016-07-01T12:44:15.902Z,684
2016-07-01T12:45:14.671Z,748
2016-07-01T12:46:15.366Z,852
2016-07-01T12:47:15.282Z,924
2016-07-01T12:48:14.734Z,1132
2016-07-01T12:49:15.349Z,1480
2016-07-01T12:50:14.742Z,1668
2016-07-01T12:51:15.322Z,1816
2016-07-01T12:52:15.944Z,2164
2016-07-01T12:53:14.730Z,2208
2016-07-01T12:54:15.975Z,2160
2016-07-01T12:55:15.985Z,2064
2016-07-01T12:56:15.942Z,1884
2016-07-01T12:57:15.390Z,1884
2016-07-01T12:58:15.394Z,1908
2016-07-01T12:59:15.384Z,1872
2016-07-01T13:00:16.016Z,1744
2016-07-01T13:01:14.830Z,1788
2016-07-01T13:02:15.415Z,1816
2016-07-01T13:03:14.776Z,1764
2016-07-01T13:04:14.757Z,1704
2016-07-01T13:05:16.032Z,1616
2016-07-01T13:06:14.764Z,1524
2016-07-01T13:07:16.057Z,1392
2016-07-01T13:08:14.825Z,1296
2016-07-01T13:09:15.413Z,1216
2016-07-01T13:10:16.095Z,1076
2016-07-01T13:11:15.475Z,872
2016-07-01T13:12:15.381Z,844
2016-07-01T13:13:15.589Z,792
2016-07-01T13:14:15.458Z,804
2016-07-01T13:15:16.032Z,804
2016-07-01T13:16:15.461Z,728
2016-07-01T13:17:15.441Z,804
2016-07-01T13:18:14.840Z,888
2016-07-01T13:19:15.493Z,984
2016-07-01T13:20:14.224Z,1100
2016-07-01T13:21:14.195Z,1404
2016-07-01T13:22:15.481Z,1428
2016-07-01T13:23:14.889Z,1468
2016-07-01T13:24:15.466Z,1380
2016-07-01T13:25:15.514Z,1320
2016-07-01T13:26:15.456Z,1284
2016-07-01T13:27:14.884Z,1248
2016-07-01T13:28:14.915Z,1168
2016-07-01T13:29:16.088Z,1108
2016-07-01T13:30:15.005Z,1108
2016-07-01T13:31:15.490Z,1284
2016-07-01T13:32:14.931Z,1284
2016-07-01T13:33:14.884Z,1176
2016-07-01T13:34:15.516Z,1068
2016-07-01T13:35:16.125Z,968
2016-07-01T13:36:14.929Z,972
2016-07-01T13:37:15.522Z,956
2016-07-01T13:38:14.926Z,852
2016-07-01T13:39:14.924Z,828
2016-07-01T13:40:15.533Z,816
2016-07-01T13:41:15.540Z,884
2016-07-01T13:42:14.955Z,880
2016-07-01T13:43:15.564Z,984
2016-07-01T13:44:14.964Z,992
2016-07-01T13:45:16.183Z,848
2016-07-01T13:46:14.350Z,720
2016-07-01T13:47:15.583Z,532
2016-07-01T13:48:14.982Z,472
2016-07-01T13:49:14.983Z,388
2016-07-01T13:50:14.386Z,368
2016-07-01T13:51:15.626Z,428
2016-07-01T13:52:14.996Z,552
2016-07-01T13:53:15.627Z,796
2016-07-01T13:54:14.405Z,996
2016-07-01T13:55:15.033Z,1244